createdAt,value
2022-08-16T00:00:04.602Z,3.80
2022-08-16T00:02:34.817Z,4.18
2022-08-16T00:05:04.402Z,3.92
2022-08-16T00:07:33.792Z,4.30
2022-08-16T00:10:05.807Z,4.07
2022-08-16T00:12:35.175Z,3.72
2022-08-16T00:15:11.959Z,3.70
2022-08-16T00:17:57.316Z,3.70
2022-08-16T00:20:27.385Z,4.10
2022-08-16T00:22:56.542Z,3.83
2022-08-16T00:26:13.646Z,3.63
2022-08-16T00:28:17.381Z,4.22
2022-08-16T00:30:47.935Z,4.32
2022-08-16T00:33:17.929Z,3.88
2022-08-16T00:35:48.337Z,3.63
2022-08-16T00:38:40.240Z,4.30
2022-08-16T00:41:08.575Z,4.03
2022-08-16T00:43:43.049Z,3.97
2022-08-16T00:46:34.138Z,4.03
2022-08-16T00:49:07.029Z,3.97
2022-08-16T00:51:47.479Z,4.25
2022-08-16T00:54:28.119Z,4.10
2022-08-16T00:56:59.856Z,3.70
2022-08-16T00:59:32.951Z,3.42
2022-08-16T01:02:30.769Z,3.78
2022-08-16T01:05:10.348Z,3.63
2022-08-16T01:07:50.806Z,4.40
2022-08-16T01:10:32.249Z,4.80
2022-08-16T01:13:06.709Z,3.92
2022-08-16T01:15:43.131Z,4.25
2022-08-16T01:18:40.582Z,3.92
2022-08-16T01:21:22.723Z,3.88
2022-08-16T01:24:02.215Z,4.20
2022-08-16T01:26:35.566Z,3.78
2022-08-16T01:29:16.761Z,4.28
2022-08-16T01:31:47.293Z,4.07
2022-08-16T01:34:25.122Z,4.40
2022-08-16T01:37:07.227Z,4.07
2022-08-16T01:39:40.228Z,3.85
2022-08-16T01:42:13.232Z,3.80
2022-08-16T01:44:43.464Z,4.30
2022-08-16T01:47:13.553Z,4.38
2022-08-16T01:50:42.807Z,4.25
2022-08-16T01:52:37.490Z,4.00
2022-08-16T01:55:23.472Z,4.20
2022-08-16T01:57:56.448Z,4.18
2022-08-16T02:00:29.211Z,4.15
2022-08-16T02:03:02.699Z,4.10
2022-08-16T02:05:31.957Z,3.72
2022-08-16T02:08:06.066Z,3.90
2022-08-16T02:10:40.747Z,4.07
2022-08-16T02:13:10.859Z,4.03
2022-08-16T02:15:43.069Z,4.25
2022-08-16T02:18:18.602Z,4.03
2022-08-16T02:20:53.390Z,4.18
2022-08-16T02:23:24.335Z,4.35
2022-08-16T02:25:54.972Z,4.15
2022-08-16T02:28:26.746Z,4.75
2022-08-16T02:30:59.595Z,4.30
2022-08-16T02:33:43.739Z,4.07
2022-08-16T02:36:47.108Z,4.45
2022-08-16T02:39:10.810Z,4.05
2022-08-16T02:41:43.701Z,4.10
2022-08-16T02:44:14.894Z,4.10
2022-08-16T02:46:50.394Z,3.80
2022-08-16T02:49:58.201Z,5.38
2022-08-16T02:52:17.176Z,4.50
2022-08-16T02:54:46.974Z,3.92
2022-08-16T02:57:27.625Z,4.43
2022-08-16T02:59:58.570Z,4.40
2022-08-16T03:02:31.946Z,4.32
2022-08-16T03:05:02.760Z,4.72
2022-08-16T03:07:37.105Z,4.57
2022-08-16T03:10:11.442Z,4.18
2022-08-16T03:12:56.374Z,4.22
2022-08-16T03:15:30.496Z,4.20
2022-08-16T03:18:01.943Z,4.35
2022-08-16T03:20:34.345Z,4.30
2022-08-16T03:23:06.547Z,4.28
2022-08-16T03:25:44.102Z,4.28
2022-08-16T03:28:17.198Z,4.55
2022-08-16T03:30:50.140Z,4.53
2022-08-16T03:33:20.045Z,4.68
2022-08-16T03:36:19.868Z,3.83
2022-08-16T03:38:54.237Z,4.53
2022-08-16T03:41:29.286Z,4.65
2022-08-16T03:44:43.440Z,4.25
2022-08-16T03:47:10.140Z,4.90
2022-08-16T03:49:41.152Z,4.20
2022-08-16T03:52:13.650Z,4.28
2022-08-16T03:54:57.659Z,4.50
2022-08-16T03:57:32.111Z,4.72
2022-08-16T04:00:20.273Z,4.80
2022-08-16T04:03:08.758Z,4.22
2022-08-16T04:05:46.807Z,4.65
2022-08-16T04:08:22.776Z,4.63
2022-08-16T04:11:00.146Z,3.75
2022-08-16T04:14:00.407Z,4.63
2022-08-16T04:16:27.362Z,4.32
2022-08-16T04:19:05.173Z,4.35
2022-08-16T04:21:46.069Z,4.95
2022-08-16T04:24:21.481Z,4.30
2022-08-16T04:26:52.673Z,4.60
2022-08-16T04:29:24.972Z,4.60
2022-08-16T04:31:58.369Z,4.32
2022-08-16T04:34:36.171Z,4.60
2022-08-16T04:37:07.768Z,4.38
2022-08-16T04:39:46.993Z,4.70
2022-08-16T04:42:29.856Z,4.90
2022-08-16T04:45:07.097Z,5.05
2022-08-16T04:47:38.929Z,4.20
2022-08-16T04:50:17.988Z,4.43
2022-08-16T04:53:00.841Z,5.00
2022-08-16T04:55:38.133Z,4.53
2022-08-16T04:58:44.058Z,4.72
2022-08-16T05:01:00.780Z,4.25
2022-08-16T05:03:33.830Z,4.70
2022-08-16T05:06:11.526Z,4.25
2022-08-16T05:08:47.279Z,4.40
2022-08-16T05:11:32.154Z,4.40
2022-08-16T05:14:06.991Z,4.57
2022-08-16T05:16:39.797Z,4.50
2022-08-16T05:19:16.497Z,4.22
2022-08-16T05:22:06.151Z,4.45
2022-08-16T05:24:47.599Z,4.68
2022-08-16T05:27:17.089Z,4.80
2022-08-16T05:30:01.080Z,4.68
2022-08-16T05:32:47.412Z,4.80
2022-08-16T05:35:20.856Z,4.47
2022-08-16T05:38:32.305Z,4.57
2022-08-16T05:41:05.096Z,4.93
2022-08-16T05:43:43.438Z,4.90
2022-08-16T05:46:28.777Z,5.00
2022-08-16T05:49:08.809Z,5.00
2022-08-16T05:51:42.566Z,4.93
2022-08-16T05:54:25.562Z,5.00
2022-08-16T05:56:59.806Z,5.70
2022-08-16T05:59:30.451Z,5.45
2022-08-16T06:02:00.549Z,5.13
2022-08-16T06:04:36.431Z,5.22
2022-08-16T06:07:26.628Z,4.70
2022-08-16T06:10:32.987Z,5.53
2022-08-16T06:13:05.802Z,5.35
2022-08-16T06:15:37.175Z,5.35
2022-08-16T06:18:11.061Z,5.50
2022-08-16T06:20:55.126Z,5.40
2022-08-16T06:23:28.580Z,5.20
2022-08-16T06:26:07.775Z,5.57
2022-08-16T06:28:41.940Z,5.18
2022-08-16T06:31:18.938Z,5.18
2022-08-16T06:33:55.996Z,5.35
2022-08-16T06:36:29.567Z,5.00
2022-08-16T06:39:17.640Z,5.20
2022-08-16T06:42:01.925Z,5.25
2022-08-16T06:44:51.829Z,4.80
2022-08-16T06:47:53.117Z,6.00
2022-08-16T06:50:29.648Z,5.72
2022-08-16T06:53:09.590Z,5.47
2022-08-16T06:55:46.658Z,5.35
2022-08-16T06:58:22.721Z,6.07
2022-08-16T07:01:01.789Z,5.57
2022-08-16T07:03:55.671Z,5.43
2022-08-16T07:06:26.777Z,5.55
2022-08-16T07:09:03.048Z,6.05
2022-08-16T07:11:46.067Z,5.95
2022-08-16T07:14:27.458Z,5.95
2022-08-16T07:17:01.087Z,6.20
2022-08-16T07:20:02.727Z,6.30
2022-08-16T07:22:47.682Z,5.72
2022-08-16T07:25:22.976Z,5.78
2022-08-16T07:27:54.827Z,6.30
2022-08-16T07:30:45.177Z,5.50
2022-08-16T07:33:51.988Z,5.82
2022-08-16T07:36:22.033Z,6.28
2022-08-16T07:38:53.532Z,6.20
2022-08-16T07:41:24.995Z,5.70
2022-08-16T07:44:02.876Z,5.68
2022-08-16T07:46:46.260Z,5.85
2022-08-16T07:49:20.899Z,5.57
2022-08-16T07:51:56.014Z,5.60
2022-08-16T07:54:37.973Z,5.95
2022-08-16T07:57:12.731Z,6.57
2022-08-16T07:59:46.609Z,6.32
2022-08-16T08:02:20.447Z,6.15
2022-08-16T08:04:55.550Z,5.65
2022-08-16T08:07:28.179Z,5.85
2022-08-16T08:09:59.551Z,5.47
2022-08-16T08:12:31.963Z,5.68
2022-08-16T08:15:09.663Z,5.57
2022-08-16T08:17:43.935Z,5.40
2022-08-16T08:20:27.970Z,5.63
2022-08-16T08:23:01.243Z,5.30
2022-08-16T08:25:53.791Z,5.50
2022-08-16T08:28:26.674Z,5.45
2022-08-16T08:31:04.380Z,5.55
2022-08-16T08:33:39.341Z,6.00
2022-08-16T08:36:22.019Z,5.78
2022-08-16T08:38:54.919Z,5.63
2022-08-16T08:41:29.495Z,5.68
2022-08-16T08:44:28.787Z,5.70
2022-08-16T08:47:00.505Z,5.63
2022-08-16T08:49:46.559Z,5.70
2022-08-16T08:52:34.335Z,5.72
2022-08-16T08:55:09.073Z,5.18
2022-08-16T08:57:42.613Z,4.93
2022-08-16T09:00:27.004Z,5.40
2022-08-16T09:03:04.536Z,5.75
2022-08-16T09:05:37.334Z,5.05
2022-08-16T09:08:10.071Z,5.68
2022-08-16T09:10:48.155Z,5.60
2022-08-16T09:13:33.288Z,5.63
2022-08-16T09:16:03.393Z,5.78
2022-08-16T09:18:36.573Z,5.75
2022-08-16T09:21:09.454Z,6.32
2022-08-16T09:23:40.425Z,5.80
2022-08-16T09:26:45.279Z,5.43
2022-08-16T09:29:17.090Z,6.30
2022-08-16T09:31:53.897Z,6.43
2022-08-16T09:34:24.928Z,5.75
2022-08-16T09:36:58.227Z,6.22
2022-08-16T09:39:41.275Z,6.10
2022-08-16T09:42:14.217Z,6.63
2022-08-16T09:45:11.654Z,6.75
2022-08-16T09:47:56.506Z,6.72
2022-08-16T09:50:37.236Z,6.32
2022-08-16T09:53:14.999Z,6.80
2022-08-16T09:55:49.289Z,6.53
2022-08-16T09:58:40.687Z,7.25
2022-08-16T10:01:11.295Z,7.28
2022-08-16T10:04:01.785Z,6.95
2022-08-16T10:06:33.398Z,6.55
2022-08-16T10:09:06.591Z,6.80
2022-08-16T10:11:55.895Z,6.45
2022-08-16T10:14:41.004Z,6.90
2022-08-16T10:17:17.889Z,6.53
2022-08-16T10:19:50.366Z,7.57
2022-08-16T10:22:23.113Z,7.68
2022-08-16T10:24:56.097Z,7.25
2022-08-16T10:27:47.274Z,6.90
2022-08-16T10:30:26.152Z,7.57
2022-08-16T10:32:58.097Z,7.85
2022-08-16T10:35:32.756Z,7.38
2022-08-16T10:38:06.327Z,7.78
2022-08-16T10:40:36.370Z,8.07
2022-08-16T10:43:08.186Z,7.05
2022-08-16T10:45:37.797Z,7.60
2022-08-16T10:48:27.480Z,7.20
2022-08-16T10:50:59.128Z,8.55
2022-08-16T10:53:32.637Z,8.05
2022-08-16T10:56:06.256Z,7.28
2022-08-16T10:58:53.339Z,7.47
2022-08-16T11:01:43.895Z,7.20
2022-08-16T11:07:08.728Z,7.28
2022-08-16T11:09:52.149Z,7.45
2022-08-16T11:12:21.395Z,7.85
2022-08-16T11:17:45.011Z,7.22
2022-08-16T11:23:05.092Z,7.05
2022-08-16T11:31:15.900Z,7.30
2022-08-16T11:33:53.194Z,7.03
2022-08-16T11:36:27.897Z,6.72
2022-08-16T11:38:58.850Z,6.82
2022-08-16T11:41:30.943Z,6.80
2022-08-16T11:44:02.238Z,6.90
2022-08-16T11:46:45.121Z,7.57
2022-08-16T11:49:16.109Z,5.95
2022-08-16T11:51:46.027Z,6.80
2022-08-16T11:54:20.806Z,6.70
2022-08-16T11:56:57.501Z,6.97
2022-08-16T11:59:29.506Z,6.65
2022-08-16T12:02:04.458Z,6.50
2022-08-16T12:04:51.593Z,6.35
2022-08-16T12:07:23.561Z,5.63
2022-08-16T12:09:53.767Z,6.65
2022-08-16T12:12:25.159Z,6.40
2022-08-16T12:15:00.079Z,5.93
2022-08-16T12:17:31.945Z,6.93
2022-08-16T12:20:01.888Z,5.57
2022-08-16T12:22:47.267Z,6.60
2022-08-16T12:25:18.198Z,6.18
2022-08-16T12:27:49.885Z,5.82
2022-08-16T12:30:27.054Z,5.75
2022-08-16T12:33:03.370Z,5.88
2022-08-16T12:35:35.779Z,5.70
2022-08-16T12:38:38.121Z,5.38
2022-08-16T12:40:57.257Z,5.93
2022-08-16T12:43:31.292Z,5.70
2022-08-16T12:46:02.048Z,5.88
2022-08-16T12:48:50.878Z,6.07
2022-08-16T12:51:25.338Z,6.00
2022-08-16T12:54:05.493Z,5.85
2022-08-16T12:56:38.783Z,6.03
2022-08-16T12:59:13.202Z,5.70
2022-08-16T13:01:50.213Z,5.40
2022-08-16T13:04:21.353Z,5.65
2022-08-16T13:06:54.493Z,6.03
2022-08-16T13:09:26.719Z,5.78
2022-08-16T13:12:03.381Z,5.78
2022-08-16T13:14:38.774Z,5.47
2022-08-16T13:17:12.852Z,6.07
2022-08-16T13:25:14.081Z,4.80
2022-08-16T13:28:03.246Z,5.20
2022-08-16T13:30:41.699Z,4.88
2022-08-16T13:33:16.481Z,4.70
2022-08-16T13:35:56.191Z,5.40
2022-08-16T13:38:37.320Z,5.00
2022-08-16T13:41:10.033Z,5.13
2022-08-16T13:43:39.813Z,4.95
2022-08-16T13:46:11.277Z,4.70
2022-08-16T13:48:44.325Z,5.30
2022-08-16T13:51:16.804Z,4.90
2022-08-16T13:53:49.544Z,4.60
2022-08-16T13:56:25.837Z,4.78
2022-08-16T13:59:02.507Z,4.78
2022-08-16T14:01:33.216Z,4.78
2022-08-16T14:04:06.055Z,4.95
2022-08-16T14:06:37.556Z,4.60
2022-08-16T14:09:07.161Z,5.03
2022-08-16T14:11:37.244Z,5.03
2022-08-16T14:14:07.274Z,4.88
2022-08-16T14:16:42.365Z,4.45
2022-08-16T14:19:14.036Z,4.53
2022-08-16T14:21:56.041Z,4.60
2022-08-16T14:24:30.144Z,4.32
2022-08-16T14:26:59.800Z,4.00
2022-08-16T14:29:35.180Z,3.90
2022-08-16T14:32:09.940Z,6.90
2022-08-16T14:35:00.599Z,4.40
2022-08-16T14:37:31.154Z,4.25
2022-08-16T14:40:03.975Z,4.35
2022-08-16T14:42:36.551Z,4.43
2022-08-16T14:45:07.945Z,4.43
2022-08-16T14:47:38.878Z,4.50
2022-08-16T14:50:13.029Z,4.20
2022-08-16T14:52:55.092Z,4.03
2022-08-16T14:55:27.599Z,4.20
2022-08-16T14:57:57.922Z,4.50
2022-08-16T15:00:33.083Z,4.50
2022-08-16T15:03:09.946Z,4.18
2022-08-16T15:05:41.763Z,4.88
2022-08-16T15:08:11.821Z,4.28
2022-08-16T15:10:45.734Z,4.50
2022-08-16T15:13:16.427Z,4.50
2022-08-16T15:15:57.419Z,4.45
2022-08-16T15:18:32.165Z,3.85
2022-08-16T15:21:02.269Z,4.65
2022-08-16T15:23:33.854Z,4.15
2022-08-16T15:26:08.351Z,3.90
2022-08-16T15:28:38.357Z,4.10
2022-08-16T15:31:13.029Z,4.20
2022-08-16T15:33:49.962Z,4.07
2022-08-16T15:36:22.655Z,3.90
2022-08-16T15:39:06.984Z,4.18
2022-08-16T15:42:01.901Z,4.88
2022-08-16T15:44:50.858Z,4.90
2022-08-16T15:47:26.296Z,4.55
2022-08-16T15:49:58.042Z,4.70
2022-08-16T15:52:30.512Z,4.43
2022-08-16T15:55:12.634Z,4.78
2022-08-16T15:57:53.449Z,5.18
2022-08-16T16:00:26.660Z,5.13
2022-08-16T16:03:04.200Z,4.70
2022-08-16T16:05:41.013Z,5.18
2022-08-16T16:08:12.902Z,5.68
2022-08-16T16:10:54.192Z,6.85
2022-08-16T16:13:24.655Z,9.88
2022-08-16T16:15:55.532Z,8.55
2022-08-16T16:18:26.225Z,9.13
2022-08-16T16:20:59.072Z,8.13
2022-08-16T16:23:34.303Z,8.50
2022-08-16T16:26:05.958Z,7.03
2022-08-16T16:29:06.645Z,7.32
2022-08-16T16:31:27.047Z,7.05
2022-08-16T16:33:58.996Z,6.53
2022-08-16T16:36:34.663Z,6.30
2022-08-16T16:39:07.446Z,6.78
2022-08-16T16:41:37.599Z,6.95
2022-08-16T16:44:07.511Z,6.82
2022-08-16T16:46:42.586Z,6.07
2022-08-16T16:49:15.088Z,6.10
2022-08-16T16:51:50.163Z,6.07
2022-08-16T16:54:22.312Z,6.13
2022-08-16T16:56:58.652Z,5.70
2022-08-16T16:59:27.995Z,5.57
2022-08-16T17:02:38.298Z,5.82
2022-08-16T17:04:48.622Z,5.90
2022-08-16T17:07:24.004Z,5.90
2022-08-16T17:09:54.122Z,5.57
2022-08-16T17:12:46.459Z,6.03
2022-08-16T17:15:14.837Z,5.28
2022-08-16T17:17:59.210Z,5.15
2022-08-16T17:20:29.544Z,5.50
2022-08-16T17:23:00.115Z,5.20
2022-08-16T17:25:36.681Z,5.68
2022-08-16T17:28:58.441Z,5.20
2022-08-16T17:30:58.661Z,5.57
2022-08-16T17:33:36.997Z,6.00
2022-08-16T17:36:08.765Z,5.55
2022-08-16T17:38:44.676Z,5.47
2022-08-16T17:41:16.180Z,5.60
2022-08-16T17:43:46.362Z,5.55
2022-08-16T17:46:50.897Z,5.20
2022-08-16T17:49:06.672Z,5.13
2022-08-16T17:51:36.169Z,5.57
2022-08-16T17:54:06.932Z,5.60
2022-08-16T17:56:36.177Z,5.32
2022-08-16T17:59:05.441Z,5.72
2022-08-16T18:01:34.726Z,5.70
2022-08-16T18:04:09.632Z,5.78
2022-08-16T18:06:39.752Z,6.28
2022-08-16T18:09:13.221Z,5.65
2022-08-16T18:11:44.606Z,6.30
2022-08-16T18:14:15.978Z,6.47
2022-08-16T18:16:46.360Z,6.05
2022-08-16T18:19:18.568Z,6.93
2022-08-16T18:22:05.820Z,6.50
2022-08-16T18:24:37.784Z,6.70
2022-08-16T18:27:26.485Z,6.13
2022-08-16T18:29:56.863Z,6.20
2022-08-16T18:32:26.152Z,6.60
2022-08-16T18:34:55.628Z,5.70
2022-08-16T18:37:25.028Z,6.28
2022-08-16T18:39:58.139Z,5.90
2022-08-16T18:42:27.703Z,5.45
2022-08-16T18:44:56.961Z,5.40
2022-08-16T18:47:26.435Z,5.93
2022-08-16T18:49:55.739Z,6.32
2022-08-16T18:52:26.044Z,5.78
2022-08-16T18:55:01.685Z,5.47
2022-08-16T18:57:44.786Z,5.28
2022-08-16T19:00:15.448Z,5.40
2022-08-16T19:02:58.014Z,5.40
2022-08-16T19:05:31.158Z,5.47
2022-08-16T19:08:01.771Z,5.35
2022-08-16T19:10:35.415Z,5.50
2022-08-16T19:13:08.728Z,5.28
2022-08-16T19:15:38.636Z,5.05
2022-08-16T19:18:08.560Z,5.03
2022-08-16T19:20:38.524Z,5.15
2022-08-16T19:23:12.498Z,4.95
2022-08-16T19:25:48.332Z,4.72
2022-08-16T19:28:50.093Z,4.70
2022-08-16T19:31:20.544Z,4.78
2022-08-16T19:33:54.972Z,4.88
2022-08-16T19:36:31.806Z,5.10
2022-08-16T19:39:05.737Z,5.35
2022-08-16T19:41:39.301Z,4.97
2022-08-16T19:44:09.517Z,4.85
2022-08-16T19:46:41.808Z,4.80
2022-08-16T19:49:16.284Z,4.25
2022-08-16T19:51:46.125Z,5.05
2022-08-16T19:54:16.040Z,4.88
2022-08-16T19:56:46.773Z,4.95
2022-08-16T19:59:19.283Z,5.05
2022-08-16T20:01:52.417Z,5.35
2022-08-16T20:04:22.517Z,5.00
2022-08-16T20:06:52.548Z,4.78
2022-08-16T20:09:22.281Z,5.03
2022-08-16T20:11:54.491Z,4.70
2022-08-16T20:14:26.519Z,4.63
2022-08-16T20:16:58.149Z,4.90
2022-08-16T20:19:28.531Z,5.07
2022-08-16T20:22:01.900Z,5.07
2022-08-16T20:24:35.249Z,4.43
2022-08-16T20:27:09.898Z,4.50
2022-08-16T20:29:41.665Z,4.72
2022-08-16T20:32:13.718Z,4.93
2022-08-16T20:34:44.119Z,4.65
2022-08-16T20:37:15.770Z,4.60
2022-08-16T20:39:46.549Z,5.15
2022-08-16T20:42:20.914Z,5.22
2022-08-16T20:44:52.092Z,4.85
2022-08-16T20:47:22.755Z,4.55
2022-08-16T20:49:53.791Z,5.13
2022-08-16T20:52:25.885Z,5.00
2022-08-16T20:54:56.771Z,4.88
2022-08-16T20:57:29.802Z,4.82
2022-08-16T20:59:59.165Z,5.85
2022-08-16T21:02:28.931Z,5.30
2022-08-16T21:04:58.147Z,4.93
2022-08-16T21:07:28.870Z,5.30
2022-08-16T21:09:58.117Z,5.22
2022-08-16T21:12:33.801Z,5.40
2022-08-16T21:15:09.427Z,5.95
2022-08-16T21:17:39.383Z,5.93
2022-08-16T21:20:11.618Z,5.88
2022-08-16T21:22:41.531Z,5.80
2022-08-16T21:25:13.800Z,6.20
2022-08-16T21:28:40.600Z,6.13
2022-08-16T21:30:34.073Z,6.20
2022-08-16T21:33:04.469Z,6.07
2022-08-16T21:35:34.143Z,6.20
2022-08-16T21:38:29.013Z,6.28
2022-08-16T21:40:53.092Z,7.38
2022-08-16T21:43:24.417Z,6.13
2022-08-16T21:45:55.585Z,6.40
2022-08-16T21:48:33.735Z,6.15
2022-08-16T21:51:05.868Z,6.47
2022-08-16T21:53:35.519Z,6.22
2022-08-16T21:56:06.615Z,6.88
2022-08-16T21:58:39.161Z,6.60
2022-08-16T22:01:08.439Z,6.55
2022-08-16T22:03:37.618Z,6.60
2022-08-16T22:06:13.257Z,6.30
2022-08-16T22:08:49.687Z,6.32
2022-08-16T22:11:21.869Z,5.68
2022-08-16T22:13:58.891Z,5.82
2022-08-16T22:16:34.820Z,6.30
2022-08-16T22:19:04.810Z,5.93
2022-08-16T22:21:35.378Z,6.00
2022-08-16T22:24:05.743Z,5.93
2022-08-16T22:26:41.039Z,6.28
2022-08-16T22:29:16.105Z,6.30
2022-08-16T22:31:45.605Z,6.70
2022-08-16T22:34:15.172Z,6.15
2022-08-16T22:36:45.442Z,5.80
2022-08-16T22:39:15.819Z,6.93
2022-08-16T22:41:46.018Z,6.65
2022-08-16T22:44:16.802Z,6.32
2022-08-16T22:46:46.759Z,6.05
2022-08-16T22:49:16.398Z,5.90
2022-08-16T22:51:45.607Z,6.50
2022-08-16T22:54:48.050Z,6.10
2022-08-16T22:57:05.480Z,6.40
2022-08-16T22:59:36.597Z,6.60
2022-08-16T23:02:09.504Z,6.00
2022-08-16T23:04:39.494Z,6.30
2022-08-16T23:07:08.725Z,5.78
2022-08-16T23:09:37.873Z,6.13
2022-08-16T23:12:07.626Z,6.07
2022-08-16T23:14:38.265Z,6.60
2022-08-16T23:17:08.074Z,6.28
2022-08-16T23:19:37.878Z,6.32
2022-08-16T23:22:07.532Z,6.18
2022-08-16T23:24:38.250Z,6.63
2022-08-16T23:27:26.028Z,5.65
2022-08-16T23:29:57.211Z,6.28
2022-08-16T23:32:26.428Z,6.78
2022-08-16T23:34:55.579Z,6.80
2022-08-16T23:37:27.568Z,6.78
2022-08-16T23:39:56.770Z,6.32
2022-08-16T23:42:52.417Z,7.43
2022-08-16T23:45:18.721Z,6.85
2022-08-16T23:47:47.981Z,6.43
2022-08-16T23:50:17.925Z,7.13
2022-08-16T23:52:58.823Z,6.50
2022-08-16T23:55:30.083Z,6.25
2022-08-16T23:57:59.597Z,6.68
